Bull Dog — WYQ4241 — position and weather

sailwx.info

Track history (hours):
 
Tides and Currents Weather Stations Pressure Air Temp Water Temp Dewpoint Dewpoint Depression Visibility Wind Speed Wind Dir Waves Ship Positions

Bull Dog

Owner: OMEGA PROTEIN INC., Moss Point, MS. More information available from US FCC via Universal Licensing System and Coast Guard Vessel Documentation Center.

Last reported at 2017-Nov-07 14:41 UTC. Time now 2017-Nov-20 02:05 UTC.
Position N 29°39' W 092°02'.
Warning: this ship's position is 12 days out of date.

Length 49 m; draft 3.6 m.

Type: Fishing. MMSI: 367088170.

Date/timePositionNaut miles runAvg speedWind from/ knotsBaromVisibWave heightAir tempDewpointWater temp
2017-Nov-07 14:41N 29°39' W 092°02'1 8.1
2017-Nov-07 14:30N 29°40' W 092°03'4 7.8
2017-Nov-07 14:00N 29°43' W 092°06'5 9.3
2017-Nov-07 13:30N 29°47' W 092°09'2 4.2
2017-Nov-07 13:00N 29°49' W 092°08'  
2017-Nov-01 02:00N 29°49' W 092°08'0 0.0
2017-Nov-01 01:30N 29°49' W 092°08'0 0.0
2017-Nov-01 01:00N 29°49' W 092°08'0 0.0
2017-Nov-01 00:30N 29°49' W 092°08'0 0.0
2017-Nov-01 00:00N 29°49' W 092°08'0 0.0
2017-Oct-31 23:30N 29°49' W 092°08'0 0.0
2017-Oct-31 23:00N 29°49' W 092°08'0 0.0
2017-Oct-31 22:30N 29°49' W 092°08'0 0.2
2017-Oct-31 22:00N 29°49' W 092°08'0 0.0
2017-Oct-31 21:31N 29°49' W 092°08'0 0.0
2017-Oct-31 21:01N 29°49' W 092°08'0 0.0
2017-Oct-31 20:31N 29°49' W 092°08'0 0.0
2017-Oct-31 20:01N 29°49' W 092°08'0 0.0
2017-Oct-31 19:30N 29°49' W 092°08'0 0.9
2017-Oct-31 19:00N 29°49' W 092°08'3 5.0
2017-Oct-31 18:30N 29°47' W 092°10'4 8.7
2017-Oct-31 18:00N 29°44' W 092°14'7 8.6
2017-Oct-31 17:15N 29°38' W 092°16'1 0.0
2017-Oct-30 01:00N 29°38' W 092°16'4 8.5
2017-Oct-30 00:30N 29°42' W 092°15'5 9.0
2017-Oct-30 00:00N 29°45' W 092°12'3 6.8
2017-Oct-29 23:30N 29°47' W 092°09'2 4.4
2017-Oct-29 23:00N 29°49' W 092°08'0 0.0
2017-Oct-29 22:31N 29°49' W 092°08'0 0.0
2017-Oct-29 22:01N 29°49' W 092°08'0 0.0
2017-Oct-29 21:30N 29°49' W 092°08'0 0.0
2017-Oct-29 21:00N 29°49' W 092°08'0 0.0
2017-Oct-29 20:30N 29°49' W 092°08'0 0.0
2017-Oct-29 20:01N 29°49' W 092°08'0 0.0
2017-Oct-29 19:30N 29°49' W 092°08'0 0.0
2017-Oct-29 19:00N 29°49' W 092°08'0 0.0
2017-Oct-29 18:30N 29°49' W 092°08'0 0.0
2017-Oct-29 18:00N 29°49' W 092°08'0 0.0
2017-Oct-29 17:30N 29°49' W 092°08'0 0.0
2017-Oct-29 17:00N 29°49' W 092°08'0 0.0
2017-Oct-29 16:30N 29°49' W 092°08'0 0.0
2017-Oct-29 16:00N 29°49' W 092°08'0 0.0
2017-Oct-29 15:30N 29°49' W 092°08'0 0.0
2017-Oct-29 15:00N 29°49' W 092°08'0 0.0
2017-Oct-29 14:30N 29°49' W 092°08'0 0.0
2017-Oct-29 14:00N 29°49' W 092°08'0 0.0
2017-Oct-29 13:30N 29°49' W 092°08'0 0.0
2017-Oct-29 13:00N 29°49' W 092°08'0 0.0
2017-Oct-29 12:30N 29°49' W 092°08'0 0.0
2017-Oct-29 12:00N 29°49' W 092°08'0 0.0
2017-Oct-29 11:30N 29°49' W 092°08'0 0.0
2017-Oct-29 11:00N 29°49' W 092°08'0 0.0
2017-Oct-29 10:30N 29°49' W 092°08'0 0.0
2017-Oct-29 10:00N 29°49' W 092°08'0 0.0
2017-Oct-29 09:30N 29°49' W 092°08'0 0.0
2017-Oct-29 09:00N 29°49' W 092°08'0 0.0
2017-Oct-29 08:30N 29°49' W 092°08'0 0.0
2017-Oct-29 08:00N 29°49' W 092°08'0 0.0
2017-Oct-29 07:30N 29°49' W 092°08'0 0.0
2017-Oct-29 07:00N 29°49' W 092°08'0 0.0
2017-Oct-29 06:30N 29°49' W 092°08'0 0.0
2017-Oct-29 06:00N 29°49' W 092°08'0 0.0
2017-Oct-29 05:30N 29°49' W 092°08'0 0.0
2017-Oct-29 05:00N 29°49' W 092°08'0 0.0
2017-Oct-29 04:30N 29°49' W 092°08'0 0.0
2017-Oct-29 04:00N 29°49' W 092°08'0 0.0
2017-Oct-28 19:00N 29°49' W 092°08'0 0.0
2017-Oct-28 18:30N 29°49' W 092°08'0 0.0
2017-Oct-28 18:00N 29°49' W 092°08'0 0.0
2017-Oct-28 17:30N 29°49' W 092°08'0 0.0
2017-Oct-28 17:00N 29°49' W 092°08'0 0.0
2017-Oct-28 16:30N 29°49' W 092°08'0 0.0
2017-Oct-28 16:00N 29°49' W 092°08'0 0.0
2017-Oct-28 15:30N 29°49' W 092°08'0 0.0
2017-Oct-28 15:00N 29°49' W 092°08'  
Track history (hours):
 
Tides and Currents Weather Stations Pressure Air Temp Water Temp Dewpoint Dewpoint Depression Visibility Wind Speed Wind Dir Waves Ship Positions

Bull Dog

Owner: OMEGA PROTEIN INC., Moss Point, MS. More information available from US FCC via Universal Licensing System and Coast Guard Vessel Documentation Center.

Last reported at 2017-Nov-07 14:41 UTC. Time now 2017-Nov-20 02:05 UTC.
Position N 29°39' W 092°02'.
Warning: this ship's position is 12 days out of date.

Length 49 m; draft 3.6 m.

Type: Fishing. MMSI: 367088170.

Date/timePositionNaut miles runAvg speedWind from/ knotsBaromVisibWave heightAir tempDewpointWater temp
2017-Nov-07 14:41N 29°39' W 092°02'1 8.1
2017-Nov-07 14:30N 29°40' W 092°03'4 7.8
2017-Nov-07 14:00N 29°43' W 092°06'5 9.3
2017-Nov-07 13:30N 29°47' W 092°09'2 4.2
2017-Nov-07 13:00N 29°49' W 092°08'  
2017-Nov-01 02:00N 29°49' W 092°08'0 0.0
2017-Nov-01 01:30N 29°49' W 092°08'0 0.0
2017-Nov-01 01:00N 29°49' W 092°08'0 0.0
2017-Nov-01 00:30N 29°49' W 092°08'0 0.0
2017-Nov-01 00:00N 29°49' W 092°08'0 0.0
2017-Oct-31 23:30N 29°49' W 092°08'0 0.0
2017-Oct-31 23:00N 29°49' W 092°08'0 0.0
2017-Oct-31 22:30N 29°49' W 092°08'0 0.2
2017-Oct-31 22:00N 29°49' W 092°08'0 0.0
2017-Oct-31 21:31N 29°49' W 092°08'0 0.0
2017-Oct-31 21:01N 29°49' W 092°08'0 0.0
2017-Oct-31 20:31N 29°49' W 092°08'0 0.0
2017-Oct-31 20:01N 29°49' W 092°08'0 0.0
2017-Oct-31 19:30N 29°49' W 092°08'0 0.9
2017-Oct-31 19:00N 29°49' W 092°08'3 5.0
2017-Oct-31 18:30N 29°47' W 092°10'4 8.7
2017-Oct-31 18:00N 29°44' W 092°14'7 8.6
2017-Oct-31 17:15N 29°38' W 092°16'1 0.0
2017-Oct-30 01:00N 29°38' W 092°16'4 8.5
2017-Oct-30 00:30N 29°42' W 092°15'5 9.0
2017-Oct-30 00:00N 29°45' W 092°12'3 6.8
2017-Oct-29 23:30N 29°47' W 092°09'2 4.4
2017-Oct-29 23:00N 29°49' W 092°08'0 0.0
2017-Oct-29 22:31N 29°49' W 092°08'0 0.0
2017-Oct-29 22:01N 29°49' W 092°08'0 0.0
2017-Oct-29 21:30N 29°49' W 092°08'0 0.0
2017-Oct-29 21:00N 29°49' W 092°08'0 0.0
2017-Oct-29 20:30N 29°49' W 092°08'0 0.0
2017-Oct-29 20:01N 29°49' W 092°08'0 0.0
2017-Oct-29 19:30N 29°49' W 092°08'0 0.0
2017-Oct-29 19:00N 29°49' W 092°08'0 0.0
2017-Oct-29 18:30N 29°49' W 092°08'0 0.0
2017-Oct-29 18:00N 29°49' W 092°08'0 0.0
2017-Oct-29 17:30N 29°49' W 092°08'0 0.0
2017-Oct-29 17:00N 29°49' W 092°08'0 0.0
2017-Oct-29 16:30N 29°49' W 092°08'0 0.0
2017-Oct-29 16:00N 29°49' W 092°08'0 0.0
2017-Oct-29 15:30N 29°49' W 092°08'0 0.0
2017-Oct-29 15:00N 29°49' W 092°08'0 0.0
2017-Oct-29 14:30N 29°49' W 092°08'0 0.0
2017-Oct-29 14:00N 29°49' W 092°08'0 0.0
2017-Oct-29 13:30N 29°49' W 092°08'0 0.0
2017-Oct-29 13:00N 29°49' W 092°08'0 0.0
2017-Oct-29 12:30N 29°49' W 092°08'0 0.0
2017-Oct-29 12:00N 29°49' W 092°08'0 0.0
2017-Oct-29 11:30N 29°49' W 092°08'0 0.0
2017-Oct-29 11:00N 29°49' W 092°08'0 0.0
2017-Oct-29 10:30N 29°49' W 092°08'0 0.0
2017-Oct-29 10:00N 29°49' W 092°08'0 0.0
2017-Oct-29 09:30N 29°49' W 092°08'0 0.0
2017-Oct-29 09:00N 29°49' W 092°08'0 0.0
2017-Oct-29 08:30N 29°49' W 092°08'0 0.0
2017-Oct-29 08:00N 29°49' W 092°08'0 0.0
2017-Oct-29 07:30N 29°49' W 092°08'0 0.0
2017-Oct-29 07:00N 29°49' W 092°08'0 0.0
2017-Oct-29 06:30N 29°49' W 092°08'0 0.0
2017-Oct-29 06:00N 29°49' W 092°08'0 0.0
2017-Oct-29 05:30N 29°49' W 092°08'0 0.0
2017-Oct-29 05:00N 29°49' W 092°08'0 0.0
2017-Oct-29 04:30N 29°49' W 092°08'0 0.0
2017-Oct-29 04:00N 29°49' W 092°08'0 0.0
2017-Oct-28 19:00N 29°49' W 092°08'0 0.0
2017-Oct-28 18:30N 29°49' W 092°08'0 0.0
2017-Oct-28 18:00N 29°49' W 092°08'0 0.0
2017-Oct-28 17:30N 29°49' W 092°08'0 0.0
2017-Oct-28 17:00N 29°49' W 092°08'0 0.0
2017-Oct-28 16:30N 29°49' W 092°08'0 0.0
2017-Oct-28 16:00N 29°49' W 092°08'0 0.0
2017-Oct-28 15:30N 29°49' W 092°08'0 0.0
2017-Oct-28 15:00N 29°49' W 092°08'  

Dump ship's entire track history